createdAt,value
2022-09-27T00:02:43.125Z,14.10
2022-09-27T00:06:45.031Z,14.10
2022-09-27T00:10:49.473Z,14.10
2022-09-27T00:14:51.240Z,14.20
2022-09-27T00:18:53.133Z,14.20
2022-09-27T00:22:54.922Z,14.20
2022-09-27T00:26:56.764Z,14.20
2022-09-27T00:30:59.710Z,14.20
2022-09-27T00:35:01.697Z,14.20
2022-09-27T00:39:03.619Z,14.20
2022-09-27T00:43:20.699Z,14.20
2022-09-27T00:47:29.716Z,14.20
2022-09-27T00:51:32.019Z,14.20
2022-09-27T00:55:46.771Z,14.20
2022-09-27T00:59:52.689Z,14.20
2022-09-27T01:04:09.146Z,14.20
2022-09-27T01:08:11.017Z,14.20
2022-09-27T01:12:37.051Z,14.20
2022-09-27T01:16:49.281Z,14.20
2022-09-27T01:21:39.144Z,14.10
2022-09-27T01:25:59.983Z,14.10
2022-09-27T01:30:19.206Z,14.10
2022-09-27T01:34:38.634Z,14.10
2022-09-27T01:39:11.380Z,14.00
2022-09-27T01:43:40.160Z,14.10
2022-09-27T01:47:45.887Z,14.10
2022-09-27T01:51:52.449Z,14.10
2022-09-27T01:55:54.230Z,14.10
2022-09-27T02:00:02.824Z,14.10
2022-09-27T02:04:11.136Z,14.10
2022-09-27T02:08:33.005Z,14.10
2022-09-27T02:12:47.106Z,14.00
2022-09-27T02:17:18.118Z,14.00
2022-09-27T02:21:26.114Z,14.00
2022-09-27T02:25:46.092Z,14.00
2022-09-27T02:29:54.522Z,14.00
2022-09-27T02:34:01.016Z,14.00
2022-09-27T02:38:04.053Z,13.90
2022-09-27T02:42:05.842Z,13.90
2022-09-27T02:46:57.105Z,13.90
2022-09-27T02:51:26.830Z,13.80
2022-09-27T02:56:03.879Z,13.70
2022-09-27T03:00:20.068Z,13.70
2022-09-27T03:04:30.606Z,13.70
2022-09-27T03:08:32.334Z,13.70
2022-09-27T03:12:34.354Z,13.70
2022-09-27T03:16:36.319Z,13.60
2022-09-27T03:20:38.102Z,13.50
2022-09-27T03:24:40.010Z,13.50
2022-09-27T03:28:41.944Z,13.50
2022-09-27T03:32:44.545Z,13.40
2022-09-27T03:36:46.560Z,13.40
2022-09-27T03:40:48.396Z,13.30
2022-09-27T03:44:51.394Z,13.30
2022-09-27T03:48:53.367Z,13.30
2022-09-27T03:52:55.245Z,13.20
2022-09-27T03:56:56.968Z,13.10
2022-09-27T04:00:58.746Z,13.00
2022-09-27T04:05:00.750Z,13.00
2022-09-27T04:09:03.262Z,12.90
2022-09-27T04:13:10.855Z,12.90
2022-09-27T04:17:12.847Z,12.80
2022-09-27T04:21:15.058Z,12.80
2022-09-27T04:25:30.439Z,12.80
2022-09-27T04:29:34.443Z,12.80
2022-09-27T04:33:36.420Z,12.80
2022-09-27T04:37:45.282Z,12.80
2022-09-27T04:42:12.898Z,12.70
2022-09-27T04:46:14.954Z,12.70
2022-09-27T04:50:17.675Z,12.70
2022-09-27T04:54:19.695Z,12.70
2022-09-27T04:58:24.870Z,12.70
2022-09-27T05:02:27.939Z,12.70
2022-09-27T05:06:33.671Z,12.70
2022-09-27T05:10:38.826Z,12.70
2022-09-27T05:16:02.543Z,12.70
2022-09-27T05:26:46.219Z,12.70
2022-09-27T05:30:51.251Z,12.70
2022-09-27T05:35:38.046Z,12.80
2022-09-27T05:40:51.043Z,12.90
2022-09-27T05:45:16.645Z,13.00
2022-09-27T05:49:31.523Z,13.10
2022-09-27T05:53:33.516Z,13.10
2022-09-27T05:57:35.362Z,13.10
2022-09-27T06:01:39.603Z,13.20
2022-09-27T06:11:29.777Z,13.30
2022-09-27T06:15:34.529Z,13.50
2022-09-27T06:19:37.106Z,13.50
2022-09-27T06:23:38.937Z,13.60
2022-09-27T06:27:40.800Z,13.70
2022-09-27T06:31:45.448Z,13.70
2022-09-27T06:35:49.423Z,13.80
2022-09-27T06:39:53.099Z,13.80
2022-09-27T06:44:06.944Z,13.70
2022-09-27T06:48:10.945Z,13.80
2022-09-27T06:52:12.776Z,14.00
2022-09-27T06:56:14.695Z,14.10
2022-09-27T07:00:26.968Z,14.20
2022-09-27T07:04:29.029Z,14.30
2022-09-27T07:08:35.597Z,14.60
2022-09-27T07:12:57.412Z,14.60
2022-09-27T07:17:03.810Z,14.60
2022-09-27T07:21:05.938Z,14.60
2022-09-27T08:04:33.366Z,15.10
2022-09-27T08:14:23.543Z,15.30
2022-09-27T08:18:25.465Z,15.40
2022-09-27T08:22:27.467Z,15.20
2022-09-27T08:26:29.466Z,15.20
2022-09-27T08:30:32.539Z,15.40
2022-09-27T08:34:34.976Z,15.40
2022-09-27T08:38:59.413Z,15.50
2022-09-27T08:43:15.160Z,15.70
2022-09-27T08:47:49.006Z,15.90
2022-09-27T08:52:11.725Z,16.00
2022-09-27T08:56:27.531Z,16.10
2022-09-27T09:01:23.892Z,16.40
2022-09-27T09:05:54.181Z,16.40
2022-09-27T09:16:01.146Z,16.80
2022-09-27T09:27:43.206Z,16.10
2022-09-27T09:32:59.403Z,16.30
2022-09-27T09:38:04.765Z,16.60
2022-09-27T09:42:54.891Z,16.80
2022-09-27T09:47:26.427Z,16.80
2022-09-27T10:14:09.567Z,17.20
2022-09-27T10:35:09.150Z,17.60
2022-09-27T10:51:49.849Z,15.80
2022-09-27T11:01:16.269Z,15.10
2022-09-27T11:05:40.224Z,15.20
2022-09-27T11:14:58.782Z,15.40
2022-09-27T11:30:21.538Z,15.50
2022-09-27T12:05:04.632Z,15.40
2022-09-27T12:10:49.222Z,16.10
2022-09-27T12:27:14.901Z,15.80
2022-09-27T12:31:46.905Z,15.80
2022-09-27T12:36:13.701Z,15.90
2022-09-27T12:40:26.914Z,16.20
2022-09-27T12:44:31.668Z,16.50
2022-09-27T12:49:01.140Z,16.80
2022-09-27T12:53:32.311Z,16.60
2022-09-27T12:58:29.373Z,16.40
2022-09-27T13:03:14.832Z,15.80
2022-09-27T13:07:31.189Z,15.70
2022-09-27T13:23:23.584Z,16.10
2022-09-27T13:47:45.181Z,16.10
2022-09-27T13:51:53.340Z,16.20
2022-09-27T13:56:05.023Z,16.20
2022-09-27T14:00:34.429Z,16.00
2022-09-27T14:04:53.457Z,16.00
2022-09-27T14:09:00.443Z,16.00
2022-09-27T14:13:03.580Z,15.90
2022-09-27T14:17:16.366Z,15.80
2022-09-27T14:21:31.243Z,15.80
2022-09-27T14:30:23.437Z,15.70
2022-09-27T14:34:28.309Z,15.50
2022-09-27T14:38:37.980Z,15.30
2022-09-27T14:42:41.431Z,15.20
2022-09-27T14:46:45.903Z,15.00
2022-09-27T14:51:14.048Z,14.90
2022-09-27T14:55:26.723Z,14.80
2022-09-27T14:59:37.912Z,14.80
2022-09-27T15:03:44.184Z,14.80
2022-09-27T15:07:47.078Z,14.80
2022-09-27T15:11:54.522Z,14.70
2022-09-27T15:15:56.460Z,14.70
2022-09-27T15:20:34.694Z,14.60
2022-09-27T15:24:44.194Z,14.40
2022-09-27T15:28:50.899Z,14.30
2022-09-27T15:32:57.920Z,14.30
2022-09-27T15:37:03.688Z,14.20
2022-09-27T15:41:13.793Z,14.10
2022-09-27T15:45:33.841Z,13.90
2022-09-27T15:49:35.903Z,13.90
2022-09-27T15:53:50.289Z,13.80
2022-09-27T15:57:59.317Z,13.70
2022-09-27T16:02:27.340Z,13.70
2022-09-27T16:06:30.932Z,13.70
2022-09-27T16:10:46.677Z,13.60
2022-09-27T16:14:48.569Z,13.70
2022-09-27T16:18:50.449Z,13.60
2022-09-27T16:22:55.985Z,13.60
2022-09-27T16:27:32.640Z,13.40
2022-09-27T16:31:32.668Z,13.20
2022-09-27T16:35:34.824Z,13.00
2022-09-27T16:39:44.009Z,12.90
2022-09-27T17:30:49.827Z,11.70
2022-09-27T17:34:52.395Z,11.60
2022-09-27T17:38:58.572Z,11.50
2022-09-27T17:43:18.585Z,11.40
2022-09-27T17:47:58.873Z,11.30
2022-09-27T18:17:58.008Z,11.30
2022-09-27T18:22:10.121Z,11.40
2022-09-27T18:26:17.194Z,11.40
2022-09-27T18:30:22.086Z,11.40
2022-09-27T18:34:46.361Z,11.40
2022-09-27T18:39:03.580Z,11.40
2022-09-27T18:43:14.027Z,11.40
2022-09-27T18:47:23.866Z,11.40
2022-09-27T18:51:43.679Z,11.40
2022-09-27T18:56:10.571Z,11.40
2022-09-27T19:00:14.030Z,11.40
2022-09-27T19:04:28.253Z,11.40
2022-09-27T19:08:40.566Z,11.50
2022-09-27T19:12:45.926Z,11.50
2022-09-27T19:16:48.361Z,11.50
2022-09-27T19:20:57.193Z,11.50
2022-09-27T19:25:02.409Z,11.50
2022-09-27T19:29:06.615Z,11.40
2022-09-27T19:33:10.955Z,11.40
2022-09-27T19:37:15.515Z,11.30
2022-09-27T19:41:17.672Z,11.30
2022-09-27T19:45:43.827Z,11.30
2022-09-27T19:49:51.854Z,11.20
2022-09-27T19:53:54.081Z,11.00
2022-09-27T19:57:58.985Z,10.90
2022-09-27T20:02:08.592Z,10.70
2022-09-27T20:06:13.027Z,10.60
2022-09-27T20:10:15.085Z,10.60
2022-09-27T20:14:17.001Z,10.70
2022-09-27T20:18:18.704Z,10.70
2022-09-27T20:22:20.489Z,10.70
2022-09-27T20:26:23.943Z,10.80
2022-09-27T20:30:25.744Z,10.80
2022-09-27T20:34:27.616Z,10.80
2022-09-27T20:38:29.374Z,10.70
2022-09-27T20:42:31.147Z,10.50
2022-09-27T20:46:33.553Z,10.40
2022-09-27T20:50:35.373Z,10.30
2022-09-27T20:54:37.276Z,10.20
2022-09-27T20:58:39.106Z,10.10
2022-09-27T21:02:47.042Z,10.00
2022-09-27T21:06:48.882Z,9.90
2022-09-27T21:10:52.863Z,9.80
2022-09-27T21:14:54.854Z,9.70
2022-09-27T21:18:57.395Z,9.70
2022-09-27T21:22:59.116Z,9.60
2022-09-27T21:27:00.936Z,9.60
2022-09-27T21:31:09.227Z,9.60
2022-09-27T21:35:11.129Z,9.60
2022-09-27T21:39:15.357Z,9.60
2022-09-27T21:43:17.102Z,9.60
2022-09-27T21:47:18.871Z,9.50
2022-09-27T21:51:26.071Z,9.50
2022-09-27T21:55:28.904Z,9.50
2022-09-27T21:59:30.690Z,9.50
2022-09-27T22:03:36.244Z,9.60
2022-09-27T22:07:39.273Z,9.50
2022-09-27T22:11:44.725Z,9.60
2022-09-27T22:15:46.623Z,9.60
2022-09-27T22:19:48.360Z,9.70
2022-09-27T22:24:05.157Z,9.70
2022-09-27T22:28:09.295Z,9.80
2022-09-27T22:32:11.515Z,9.90
2022-09-27T22:36:13.217Z,9.80
2022-09-27T22:40:15.139Z,9.90
2022-09-27T22:44:17.245Z,10.00
2022-09-27T22:48:19.105Z,10.00
2022-09-27T22:52:21.374Z,10.10
2022-09-27T22:56:23.155Z,10.10
2022-09-27T23:00:25.146Z,10.10
2022-09-27T23:04:26.913Z,10.10
2022-09-27T23:08:28.764Z,10.10
2022-09-27T23:12:31.145Z,10.00
2022-09-27T23:16:33.691Z,10.10
2022-09-27T23:20:35.600Z,10.20
2022-09-27T23:24:37.363Z,10.20
2022-09-27T23:28:39.229Z,10.10
2022-09-27T23:32:46.019Z,10.30
2022-09-27T23:36:47.891Z,10.30
2022-09-27T23:40:49.818Z,10.40
2022-09-27T23:44:52.941Z,10.40
2022-09-27T23:48:54.861Z,10.40
2022-09-27T23:52:56.621Z,10.40
2022-09-27T23:56:58.791Z,10.40
